KANB/ANB METAR and TAF weather

Enter ICAO airport designator
Station Type Date Time Source
KANB METAR 2022/05/24 11:05 UTC NOAA

KANB 241105Z AUTO 07003KT 10SM OVC004 20/19 A3005 RMK AO2 T02000189


Station Type Date Time Source
KANB Decoded METAR 2022/05/24 11:05 UTC NOAA

ANNISTON METRO AIRPORT, AL, United States (KANB) 33-35N 085-51W 183M
May 24, 2022 - 07:05 AM EDT / 2022.05.24 1105 UTC
Wind: from the ENE (070 degrees) at 3 MPH (3 KT):0
Visibility: 10 mile(s):0
Sky conditions: overcast
Temperature: 68.0 F (20.0 C)
Dew Point: 66.0 F (18.9 C)
Relative Humidity: 93%
Pressure (altimeter): 30.05 in. Hg (1017 hPa)
ob: KANB 241105Z AUTO 07003KT 10SM OVC004 20/19 A3005 RMK AO2 T02000189
cycle: 11

Station Type Date Time Source
KANB TAF 2022/05/24 12:22 UTC NOAA

TAF KANB 241120Z 2412/2512 VRB04KT P6SM SCT004 OVC023
TEMPO 2412/2413 OVC004
FM241500 16008KT 6SM SHRA BR OVC021
FM241900 18009KT P6SM VCSH OVC045
FM242200 16010KT 6SM SHRA BR BKN060 PROB30 2422/2503 4SM TSRA BR OVC025CB
FM250300 14007KT P6SM BKN050
FM250800 14007KT P6SM BKN027

Example: see airport list